createdAt,value
2018-09-30T00:00:16.458Z,21.45
2018-09-30T00:00:53.966Z,21.45
2018-09-30T00:01:31.512Z,21.45
2018-09-30T00:02:08.926Z,21.46
2018-09-30T00:02:46.622Z,21.46
2018-09-30T00:03:24.226Z,21.45
2018-09-30T00:04:01.630Z,21.45
2018-09-30T00:04:39.217Z,21.45
2018-09-30T00:05:16.835Z,21.45
2018-09-30T00:05:54.519Z,21.45
2018-09-30T00:06:31.998Z,21.45
2018-09-30T00:07:09.751Z,21.45
2018-09-30T00:07:47.489Z,21.45
2018-09-30T00:08:25.023Z,21.45
2018-09-30T00:09:02.701Z,21.45
2018-09-30T00:09:40.178Z,21.46
2018-09-30T00:10:17.756Z,21.45
2018-09-30T00:10:55.302Z,21.45
2018-09-30T00:11:33.019Z,21.45
2018-09-30T00:12:10.527Z,21.45
2018-09-30T00:12:48.423Z,21.44
2018-09-30T00:13:26.138Z,21.45
2018-09-30T00:14:03.776Z,21.44
2018-09-30T00:14:41.347Z,21.44
2018-09-30T00:15:19.157Z,21.44
2018-09-30T00:15:56.503Z,21.44
2018-09-30T00:16:34.243Z,21.44
2018-09-30T00:17:11.901Z,21.44
2018-09-30T00:17:49.855Z,21.44
2018-09-30T00:18:27.505Z,21.44
2018-09-30T00:19:05.199Z,21.43
2018-09-30T00:19:43.008Z,21.43
2018-09-30T00:20:20.795Z,21.44
2018-09-30T00:20:58.477Z,21.43
2018-09-30T00:21:36.263Z,21.42
2018-09-30T00:22:14.029Z,21.43
2018-09-30T00:22:51.838Z,21.43
2018-09-30T00:23:29.487Z,21.44
2018-09-30T00:24:06.983Z,21.43
2018-09-30T00:24:44.550Z,21.43
2018-09-30T00:25:22.194Z,21.44
2018-09-30T00:25:59.678Z,21.43
2018-09-30T00:26:37.528Z,21.43
2018-09-30T00:27:15.194Z,21.42
2018-09-30T00:27:52.727Z,21.43
2018-09-30T00:28:30.549Z,21.43
2018-09-30T00:29:08.277Z,21.43
2018-09-30T00:29:45.847Z,21.43
2018-09-30T00:30:23.497Z,21.42
2018-09-30T00:31:01.041Z,21.43
2018-09-30T00:31:38.857Z,21.43
2018-09-30T00:32:16.365Z,21.44
2018-09-30T00:32:53.978Z,21.42
2018-09-30T00:33:31.567Z,21.43
2018-09-30T00:34:09.239Z,21.43
2018-09-30T00:34:46.785Z,21.43
2018-09-30T00:35:24.247Z,21.42
2018-09-30T00:36:02.067Z,21.42
2018-09-30T00:36:39.490Z,21.42
2018-09-30T00:37:17.153Z,21.43
2018-09-30T00:37:54.656Z,21.43
2018-09-30T00:38:32.259Z,21.42
2018-09-30T00:39:09.724Z,21.43
2018-09-30T00:39:47.251Z,21.42
2018-09-30T00:40:24.845Z,21.42
2018-09-30T00:41:02.310Z,21.42
2018-09-30T00:41:39.945Z,21.42
2018-09-30T00:42:17.469Z,21.42
2018-09-30T00:42:55.155Z,21.42
2018-09-30T00:43:32.873Z,21.42
2018-09-30T00:44:10.210Z,21.42
2018-09-30T00:44:47.812Z,21.43
2018-09-30T00:45:25.561Z,21.42
2018-09-30T00:46:03.326Z,21.43
2018-09-30T00:46:41.102Z,21.43
2018-09-30T00:47:18.596Z,21.43
2018-09-30T00:47:56.333Z,21.42
2018-09-30T00:48:34.203Z,21.42
2018-09-30T00:49:11.628Z,21.42
2018-09-30T00:49:49.202Z,21.42
2018-09-30T00:50:26.844Z,21.42
2018-09-30T00:51:04.602Z,21.42
2018-09-30T00:51:42.241Z,21.42
2018-09-30T00:52:19.920Z,21.42
2018-09-30T00:52:57.602Z,21.41
2018-09-30T00:53:35.074Z,21.41
2018-09-30T00:54:13.065Z,21.42
2018-09-30T00:54:50.652Z,21.42
2018-09-30T00:55:28.212Z,21.42
2018-09-30T00:56:05.745Z,21.42
2018-09-30T00:56:43.442Z,21.42
2018-09-30T00:57:20.996Z,21.42
2018-09-30T00:57:58.549Z,21.42
2018-09-30T00:58:36.084Z,21.41
2018-09-30T00:59:13.768Z,21.42
2018-09-30T00:59:51.406Z,21.42
2018-09-30T01:00:29.013Z,21.42
2018-09-30T01:01:06.909Z,21.42
2018-09-30T01:01:44.613Z,21.41
2018-09-30T01:02:21.988Z,21.41
2018-09-30T01:02:59.754Z,21.42
2018-09-30T01:03:37.359Z,21.42
2018-09-30T01:04:14.977Z,21.42
2018-09-30T01:04:52.597Z,21.42
2018-09-30T01:05:30.197Z,21.41
2018-09-30T01:06:50.599Z,21.41
2018-09-30T01:07:28.210Z,21.41
2018-09-30T01:08:05.730Z,21.41
2018-09-30T01:08:43.354Z,21.40
2018-09-30T01:09:21.055Z,21.42
2018-09-30T01:09:58.473Z,21.40
2018-09-30T01:10:36.175Z,21.41
2018-09-30T01:11:13.790Z,21.41
2018-09-30T01:11:51.196Z,21.41
2018-09-30T01:12:28.775Z,21.41
2018-09-30T01:13:06.743Z,21.41
2018-09-30T01:13:44.283Z,21.40
2018-09-30T01:14:21.922Z,21.40
2018-09-30T01:14:59.542Z,21.40
2018-09-30T01:15:37.482Z,21.40
2018-09-30T01:16:14.881Z,21.41
2018-09-30T01:16:52.462Z,21.40
2018-09-30T01:17:30.124Z,21.40
2018-09-30T01:18:07.752Z,21.39
2018-09-30T01:18:45.554Z,21.40
2018-09-30T01:19:23.173Z,21.41
2018-09-30T01:20:00.741Z,21.40
2018-09-30T01:20:38.582Z,21.40
2018-09-30T01:21:16.490Z,21.41
2018-09-30T01:21:55.882Z,21.41
2018-09-30T01:22:33.330Z,21.40
2018-09-30T01:23:10.927Z,21.39
2018-09-30T01:23:48.620Z,21.40
2018-09-30T01:24:26.637Z,21.39
2018-09-30T01:25:04.238Z,21.39
2018-09-30T01:25:41.774Z,21.39
2018-09-30T01:26:19.437Z,21.38
2018-09-30T01:26:57.059Z,21.39
2018-09-30T01:27:34.569Z,21.39
2018-09-30T01:28:12.124Z,21.39
2018-09-30T01:28:49.638Z,21.39
2018-09-30T01:29:27.231Z,21.39
2018-09-30T01:30:04.684Z,21.39
2018-09-30T01:30:42.389Z,21.38
2018-09-30T01:31:19.890Z,21.38
2018-09-30T01:31:57.716Z,21.38
2018-09-30T01:32:35.242Z,21.39
2018-09-30T01:33:12.727Z,21.39
2018-09-30T01:33:50.345Z,21.39
2018-09-30T01:34:27.850Z,21.39
2018-09-30T01:35:05.660Z,21.39
2018-09-30T01:35:43.683Z,21.39
2018-09-30T01:36:21.462Z,21.39
2018-09-30T01:36:59.149Z,21.38
2018-09-30T01:37:36.716Z,21.39
2018-09-30T01:38:14.186Z,21.39
2018-09-30T01:38:51.794Z,21.38
2018-09-30T01:39:29.388Z,21.39
2018-09-30T01:40:07.121Z,21.38
2018-09-30T01:40:44.809Z,21.39
2018-09-30T01:41:22.609Z,21.39
2018-09-30T01:42:00.100Z,21.38
2018-09-30T01:42:37.622Z,21.38
2018-09-30T01:43:15.070Z,21.38
2018-09-30T01:43:52.685Z,21.39
2018-09-30T01:44:30.299Z,21.38
2018-09-30T01:45:08.161Z,21.39
2018-09-30T01:45:45.930Z,21.39
2018-09-30T01:46:23.695Z,21.39
2018-09-30T01:47:01.107Z,21.39
2018-09-30T01:47:38.775Z,21.39
2018-09-30T01:48:16.293Z,21.39
2018-09-30T01:48:54.106Z,21.38
2018-09-30T01:49:31.776Z,21.39
2018-09-30T01:50:09.620Z,21.40
2018-09-30T01:50:47.253Z,21.40
2018-09-30T01:51:25.154Z,21.40
2018-09-30T01:52:02.672Z,21.39
2018-09-30T01:52:40.301Z,21.39
2018-09-30T01:53:17.949Z,21.38
2018-09-30T01:53:55.385Z,21.38
2018-09-30T01:54:33.032Z,21.38
2018-09-30T01:55:10.599Z,21.38
2018-09-30T01:55:48.372Z,21.39
2018-09-30T01:56:26.064Z,21.39
2018-09-30T01:57:03.518Z,21.37
2018-09-30T01:57:41.185Z,21.38
2018-09-30T01:59:00.917Z,21.39
2018-09-30T01:59:38.687Z,21.39
2018-09-30T02:00:16.356Z,21.38
2018-09-30T02:00:54.067Z,21.38
2018-09-30T02:01:31.570Z,21.38
2018-09-30T02:02:09.323Z,21.38
2018-09-30T02:02:46.849Z,21.38
2018-09-30T02:03:24.468Z,21.38
2018-09-30T02:04:01.970Z,21.38
2018-09-30T02:04:39.534Z,21.37
2018-09-30T02:05:17.089Z,21.38
2018-09-30T02:05:54.570Z,21.38
2018-09-30T02:06:32.107Z,21.38
2018-09-30T02:07:09.672Z,21.38
2018-09-30T02:07:47.387Z,21.38
2018-09-30T02:08:24.932Z,21.37
2018-09-30T02:09:02.553Z,21.38
2018-09-30T02:09:40.235Z,21.37
2018-09-30T02:10:17.735Z,21.37
2018-09-30T02:10:55.442Z,21.37
2018-09-30T02:11:32.934Z,21.37
2018-09-30T02:12:10.693Z,21.38
2018-09-30T02:12:48.521Z,21.37
2018-09-30T02:13:26.167Z,21.38
2018-09-30T02:14:04.330Z,21.38
2018-09-30T02:14:43.246Z,21.36
2018-09-30T02:15:20.823Z,21.37
2018-09-30T02:15:58.447Z,21.37
2018-09-30T02:16:36.011Z,21.37
2018-09-30T02:17:13.627Z,21.36
2018-09-30T02:17:51.045Z,21.37
2018-09-30T02:18:28.506Z,21.36
2018-09-30T02:19:06.222Z,21.36
2018-09-30T02:20:27.402Z,21.37
2018-09-30T02:21:05.414Z,21.36
2018-09-30T02:21:43.091Z,21.37
2018-09-30T02:22:20.839Z,21.36
2018-09-30T02:22:58.554Z,21.36
2018-09-30T02:23:36.258Z,21.36
2018-09-30T02:24:13.781Z,21.36
2018-09-30T02:24:51.397Z,21.37
2018-09-30T02:25:28.929Z,21.37
2018-09-30T02:26:06.403Z,21.36
2018-09-30T02:26:43.940Z,21.37
2018-09-30T02:27:21.574Z,21.37
2018-09-30T02:27:59.181Z,21.37
2018-09-30T02:28:36.735Z,21.36
2018-09-30T02:29:14.225Z,21.36
2018-09-30T02:29:51.792Z,21.36
2018-09-30T02:30:29.572Z,21.36
2018-09-30T02:31:07.352Z,21.36
2018-09-30T02:31:44.769Z,21.36
2018-09-30T02:32:22.340Z,21.35
2018-09-30T02:32:59.954Z,21.35
2018-09-30T02:33:37.778Z,21.35
2018-09-30T02:34:15.326Z,21.36
2018-09-30T02:34:53.023Z,21.35
2018-09-30T02:35:30.514Z,21.35
2018-09-30T02:36:08.232Z,21.35
2018-09-30T02:36:45.939Z,21.34
2018-09-30T02:37:23.473Z,21.34
2018-09-30T02:38:01.083Z,21.35
2018-09-30T02:38:38.764Z,21.35
2018-09-30T02:39:16.571Z,21.35
2018-09-30T02:39:54.368Z,21.36
2018-09-30T02:40:32.002Z,21.35
2018-09-30T02:41:09.695Z,21.35
2018-09-30T02:41:47.276Z,21.35
2018-09-30T02:42:24.789Z,21.36
2018-09-30T02:43:02.288Z,21.35
2018-09-30T02:43:39.689Z,21.34
2018-09-30T02:44:17.318Z,21.35
2018-09-30T02:44:54.894Z,21.35
2018-09-30T02:45:32.448Z,21.35
2018-09-30T02:46:10.051Z,21.35
2018-09-30T02:47:30.935Z,21.35
2018-09-30T02:48:08.720Z,21.35
2018-09-30T02:48:46.338Z,21.35
2018-09-30T02:49:23.909Z,21.35
2018-09-30T02:50:01.625Z,21.36
2018-09-30T02:50:39.364Z,21.33
2018-09-30T02:51:17.130Z,21.35
2018-09-30T02:51:54.890Z,21.35
2018-09-30T02:52:32.582Z,21.35
2018-09-30T02:53:10.493Z,21.34
2018-09-30T02:53:48.037Z,21.34
2018-09-30T02:54:25.746Z,21.35
2018-09-30T02:55:03.291Z,21.34
2018-09-30T02:55:41.015Z,21.34
2018-09-30T02:56:18.460Z,21.34
2018-09-30T02:56:56.178Z,21.34
2018-09-30T02:57:33.659Z,21.34
2018-09-30T02:58:11.375Z,21.33
2018-09-30T02:58:49.014Z,21.34
2018-09-30T02:59:26.709Z,21.34
2018-09-30T03:00:04.506Z,21.34
2018-09-30T03:00:42.072Z,21.33
2018-09-30T03:01:19.625Z,21.33
2018-09-30T03:01:57.382Z,21.34
2018-09-30T03:02:34.958Z,21.33
2018-09-30T03:03:12.649Z,21.33
2018-09-30T03:03:50.375Z,21.33
2018-09-30T03:04:28.085Z,21.32
2018-09-30T03:05:06.379Z,21.34
2018-09-30T03:05:43.890Z,21.35
2018-09-30T03:06:21.581Z,21.33
2018-09-30T03:06:59.088Z,21.33
2018-09-30T03:07:36.472Z,21.34
2018-09-30T03:08:14.094Z,21.33
2018-09-30T03:08:51.930Z,21.33
2018-09-30T03:09:29.560Z,21.32
2018-09-30T03:10:07.177Z,21.33
2018-09-30T03:10:44.783Z,21.33
2018-09-30T03:11:22.407Z,21.32
2018-09-30T03:11:59.946Z,21.33
2018-09-30T03:12:37.691Z,21.32
2018-09-30T03:13:15.296Z,21.32
2018-09-30T03:13:52.770Z,21.32
2018-09-30T03:14:30.484Z,21.32
2018-09-30T03:15:07.950Z,21.32
2018-09-30T03:15:45.423Z,21.33
2018-09-30T03:16:23.169Z,21.32
2018-09-30T03:17:00.845Z,21.33
2018-09-30T03:17:38.751Z,21.33
2018-09-30T03:18:16.639Z,21.32
2018-09-30T03:18:54.467Z,21.34
2018-09-30T03:19:31.930Z,21.33
2018-09-30T03:20:09.550Z,21.33
2018-09-30T03:20:47.353Z,21.32
2018-09-30T03:21:24.926Z,21.32
2018-09-30T03:22:02.642Z,21.32
2018-09-30T03:22:40.117Z,21.31
2018-09-30T03:23:17.784Z,21.31
2018-09-30T03:23:55.466Z,21.32
2018-09-30T03:24:33.032Z,21.33
2018-09-30T03:25:10.786Z,21.31
2018-09-30T03:25:48.517Z,21.32
2018-09-30T03:26:26.101Z,21.33
2018-09-30T03:27:03.756Z,21.32
2018-09-30T03:27:41.283Z,21.32
2018-09-30T03:28:18.803Z,21.31
2018-09-30T03:28:56.294Z,21.31
2018-09-30T03:29:34.014Z,21.31
2018-09-30T03:30:11.930Z,21.30
2018-09-30T03:30:49.821Z,21.31
2018-09-30T03:31:27.747Z,21.31
2018-09-30T03:32:05.162Z,21.32
2018-09-30T03:32:42.930Z,21.31
2018-09-30T03:33:20.458Z,21.31
2018-09-30T03:33:58.097Z,21.31
2018-09-30T03:34:35.633Z,21.32
2018-09-30T03:35:13.362Z,21.32
2018-09-30T03:35:50.725Z,21.31
2018-09-30T03:36:28.352Z,21.31
2018-09-30T03:37:06.136Z,21.30
2018-09-30T03:37:43.969Z,21.30
2018-09-30T03:38:21.690Z,21.30
2018-09-30T03:38:59.211Z,21.30
2018-09-30T03:39:36.828Z,21.31
2018-09-30T03:40:14.435Z,21.31
2018-09-30T03:40:52.024Z,21.30
2018-09-30T03:41:29.502Z,21.31
2018-09-30T03:42:06.967Z,21.31
2018-09-30T03:42:44.617Z,21.30
2018-09-30T03:43:22.223Z,21.29
2018-09-30T03:43:59.877Z,21.30
2018-09-30T03:44:37.526Z,21.30
2018-09-30T03:45:15.038Z,21.29
2018-09-30T03:45:52.562Z,21.30
2018-09-30T03:46:30.396Z,21.31
2018-09-30T03:47:07.886Z,21.31
2018-09-30T03:47:45.511Z,21.31
2018-09-30T03:48:22.970Z,21.31
2018-09-30T03:49:00.614Z,21.31
2018-09-30T03:49:38.378Z,21.31
2018-09-30T03:50:16.044Z,21.31
2018-09-30T03:50:53.581Z,21.31
2018-09-30T03:51:31.246Z,21.30
2018-09-30T03:52:08.829Z,21.31
2018-09-30T03:52:46.545Z,21.30
2018-09-30T03:53:24.225Z,21.29
2018-09-30T03:54:01.775Z,21.30
2018-09-30T03:54:39.368Z,21.30
2018-09-30T03:55:17.146Z,21.31
2018-09-30T03:55:54.971Z,21.30
2018-09-30T03:56:32.642Z,21.30
2018-09-30T03:57:10.399Z,21.30
2018-09-30T03:57:48.251Z,21.30
2018-09-30T03:58:26.021Z,21.30
2018-09-30T03:59:03.500Z,21.30
2018-09-30T03:59:41.092Z,21.30
2018-09-30T04:00:18.658Z,21.30
2018-09-30T04:00:56.353Z,21.29
2018-09-30T04:01:33.935Z,21.30
2018-09-30T04:02:11.694Z,21.30
2018-09-30T04:02:49.426Z,21.29
2018-09-30T04:03:26.975Z,21.29
2018-09-30T04:04:04.418Z,21.29
2018-09-30T04:04:42.006Z,21.29
2018-09-30T04:05:19.547Z,21.29
2018-09-30T04:05:57.170Z,21.29
2018-09-30T04:06:34.913Z,21.29
2018-09-30T04:07:12.488Z,21.29
2018-09-30T04:07:49.937Z,21.30
2018-09-30T04:08:27.682Z,21.29
2018-09-30T04:09:05.216Z,21.29
2018-09-30T04:09:42.752Z,21.27
2018-09-30T04:10:20.279Z,21.29
2018-09-30T04:10:57.910Z,21.28
2018-09-30T04:11:35.434Z,21.28
2018-09-30T04:12:13.362Z,21.28
2018-09-30T04:12:54.221Z,21.29
2018-09-30T04:13:31.879Z,21.29
2018-09-30T04:14:09.464Z,21.29
2018-09-30T04:14:47.178Z,21.28
2018-09-30T04:15:25.031Z,21.28
2018-09-30T04:16:02.470Z,21.29
2018-09-30T04:16:40.130Z,21.29
2018-09-30T04:17:17.767Z,21.29
2018-09-30T04:17:55.484Z,21.29
2018-09-30T04:18:33.023Z,21.29
2018-09-30T04:19:10.667Z,21.28
2018-09-30T04:19:48.262Z,21.28
2018-09-30T04:20:25.726Z,21.30
2018-09-30T04:21:03.272Z,21.29
2018-09-30T04:21:40.929Z,21.27
2018-09-30T04:22:18.503Z,21.27
2018-09-30T04:22:56.150Z,21.28
2018-09-30T04:24:12.436Z,21.27
2018-09-30T04:24:49.875Z,21.27
2018-09-30T04:25:27.651Z,21.28
2018-09-30T04:26:05.289Z,21.27
2018-09-30T04:26:42.920Z,21.28
2018-09-30T04:27:20.480Z,21.27
2018-09-30T04:27:58.256Z,21.27
2018-09-30T04:28:35.826Z,21.28
2018-09-30T04:29:13.461Z,21.28
2018-09-30T04:29:51.128Z,21.28
2018-09-30T04:30:28.818Z,21.27
2018-09-30T04:31:06.466Z,21.27
2018-09-30T04:31:43.994Z,21.27
2018-09-30T04:32:21.725Z,21.28
2018-09-30T04:32:59.415Z,21.28
2018-09-30T04:33:36.838Z,21.27
2018-09-30T04:34:14.603Z,21.27
2018-09-30T04:34:52.082Z,21.27
2018-09-30T04:35:29.833Z,21.27
2018-09-30T04:36:07.355Z,21.27
2018-09-30T04:36:45.247Z,21.27
2018-09-30T04:37:23.233Z,21.27
2018-09-30T04:38:00.905Z,21.27
2018-09-30T04:38:38.703Z,21.27
2018-09-30T04:39:16.453Z,21.27
2018-09-30T04:39:53.944Z,21.27
2018-09-30T04:40:31.714Z,21.27
2018-09-30T04:41:09.410Z,21.27
2018-09-30T04:41:47.138Z,21.27
2018-09-30T04:42:25.053Z,21.27
2018-09-30T04:43:02.540Z,21.27
2018-09-30T04:43:40.087Z,21.27
2018-09-30T04:44:17.826Z,21.26
2018-09-30T04:45:38.646Z,21.26
2018-09-30T04:46:16.267Z,21.26
2018-09-30T04:46:53.816Z,21.25
2018-09-30T04:47:31.589Z,21.26
2018-09-30T04:48:09.236Z,21.26
2018-09-30T04:48:46.702Z,21.25
2018-09-30T04:49:24.361Z,21.26
2018-09-30T04:50:45.396Z,21.26
2018-09-30T04:51:23.036Z,21.24
2018-09-30T04:52:00.721Z,21.25
2018-09-30T04:52:38.367Z,21.25
2018-09-30T04:53:15.877Z,21.25
2018-09-30T04:53:53.334Z,21.25
2018-09-30T04:54:30.869Z,21.26
2018-09-30T04:55:08.497Z,21.25
2018-09-30T04:55:46.157Z,21.25
2018-09-30T04:56:23.877Z,21.25
2018-09-30T04:57:01.542Z,21.26
2018-09-30T04:57:39.138Z,21.25
2018-09-30T04:58:17.081Z,21.24
2018-09-30T04:58:54.549Z,21.25
2018-09-30T04:59:32.262Z,21.26
2018-09-30T05:00:09.732Z,21.26
2018-09-30T05:00:47.365Z,21.26
2018-09-30T05:01:25.045Z,21.25
2018-09-30T05:02:02.801Z,21.24
2018-09-30T05:02:40.672Z,21.25
2018-09-30T05:03:18.254Z,21.25
2018-09-30T05:03:55.880Z,21.26
2018-09-30T05:04:33.477Z,21.25
2018-09-30T05:05:11.131Z,21.26
2018-09-30T05:05:48.720Z,21.25
2018-09-30T05:06:26.344Z,21.25
2018-09-30T05:07:03.986Z,21.25
2018-09-30T05:07:41.826Z,21.25
2018-09-30T05:08:19.424Z,21.25
2018-09-30T05:08:56.983Z,21.25
2018-09-30T05:09:34.739Z,21.26
2018-09-30T05:10:12.460Z,21.25
2018-09-30T05:10:50.114Z,21.26
2018-09-30T05:11:27.618Z,21.26
2018-09-30T05:12:05.257Z,21.25
2018-09-30T05:12:42.924Z,21.23
2018-09-30T05:13:20.474Z,21.23
2018-09-30T05:13:58.026Z,21.23
2018-09-30T05:14:35.568Z,21.23
2018-09-30T05:15:13.178Z,21.23
2018-09-30T05:15:50.859Z,21.24
2018-09-30T05:16:28.396Z,21.23
2018-09-30T05:17:05.964Z,21.24
2018-09-30T05:17:43.614Z,21.25
2018-09-30T05:18:21.338Z,21.25
2018-09-30T05:18:59.017Z,21.25
2018-09-30T05:19:36.562Z,21.25
2018-09-30T05:20:14.133Z,21.23
2018-09-30T05:20:51.786Z,21.25
2018-09-30T05:21:29.172Z,21.23
2018-09-30T05:22:07.017Z,21.25
2018-09-30T05:22:44.709Z,21.24
2018-09-30T05:23:22.223Z,21.25
2018-09-30T05:24:00.015Z,21.23
2018-09-30T05:24:37.900Z,21.23
2018-09-30T05:25:15.449Z,21.25
2018-09-30T05:25:53.268Z,21.25
2018-09-30T05:26:31.055Z,21.24
2018-09-30T05:27:08.743Z,21.23
2018-09-30T05:27:46.730Z,21.25
2018-09-30T05:28:24.397Z,21.25
2018-09-30T05:29:02.216Z,21.25
2018-09-30T05:29:39.881Z,21.25
2018-09-30T05:30:17.707Z,21.25
2018-09-30T05:30:55.166Z,21.23
2018-09-30T05:31:32.802Z,21.25
2018-09-30T05:32:10.210Z,21.25
2018-09-30T05:32:47.891Z,21.25
2018-09-30T05:33:25.575Z,21.25
2018-09-30T05:34:03.208Z,21.25
2018-09-30T05:34:40.652Z,21.26
2018-09-30T05:35:18.273Z,21.26
2018-09-30T05:35:55.757Z,21.26
2018-09-30T05:36:33.384Z,21.26
2018-09-30T05:37:11.167Z,21.25
2018-09-30T05:37:49.018Z,21.25
2018-09-30T05:38:27.011Z,21.25
2018-09-30T05:39:04.574Z,21.25
2018-09-30T05:39:42.142Z,21.25
2018-09-30T05:40:19.746Z,21.25
2018-09-30T05:40:57.299Z,21.25
2018-09-30T05:41:34.839Z,21.26
2018-09-30T05:42:12.476Z,21.25
2018-09-30T05:42:50.289Z,21.26
2018-09-30T05:43:28.071Z,21.25
2018-09-30T05:44:05.554Z,21.25
2018-09-30T05:44:43.498Z,21.25
2018-09-30T05:45:21.136Z,21.25
2018-09-30T05:45:58.859Z,21.25
2018-09-30T05:46:36.437Z,21.25
2018-09-30T05:47:14.347Z,21.25
2018-09-30T05:47:52.283Z,21.23
2018-09-30T05:48:29.876Z,21.23
2018-09-30T05:49:07.440Z,21.24
2018-09-30T05:49:45.147Z,21.25
2018-09-30T05:50:22.921Z,21.25
2018-09-30T05:51:00.468Z,21.23
2018-09-30T05:51:38.026Z,21.25
2018-09-30T05:52:15.582Z,21.25
2018-09-30T05:52:53.334Z,21.23
2018-09-30T05:53:30.991Z,21.22
2018-09-30T05:54:08.541Z,21.25
2018-09-30T05:54:46.163Z,21.23
2018-09-30T05:56:11.043Z,21.24
2018-09-30T05:56:48.669Z,21.23
2018-09-30T05:57:26.520Z,21.24
2018-09-30T05:58:04.353Z,21.24
2018-09-30T05:58:42.004Z,21.23
2018-09-30T05:59:19.638Z,21.23
2018-09-30T05:59:57.177Z,21.23
2018-09-30T06:00:34.835Z,21.22
2018-09-30T06:01:12.600Z,21.22
2018-09-30T06:01:50.042Z,21.23
2018-09-30T06:02:27.662Z,21.23
2018-09-30T06:03:05.312Z,21.23
2018-09-30T06:03:42.881Z,21.25
2018-09-30T06:04:20.681Z,21.24
2018-09-30T06:04:58.154Z,21.25
2018-09-30T06:05:35.830Z,21.23
2018-09-30T06:06:13.716Z,21.22
2018-09-30T06:06:51.389Z,21.23
2018-09-30T06:07:29.287Z,21.25
2018-09-30T06:08:06.667Z,21.23
2018-09-30T06:08:44.282Z,21.24
2018-09-30T06:09:21.752Z,21.23
2018-09-30T06:09:59.167Z,21.24
2018-09-30T06:10:36.785Z,21.23
2018-09-30T06:11:14.422Z,21.23
2018-09-30T06:11:52.234Z,21.23
2018-09-30T06:12:29.697Z,21.23
2018-09-30T06:13:07.171Z,21.23
2018-09-30T06:13:44.929Z,21.22
2018-09-30T06:14:22.522Z,21.25
2018-09-30T06:15:00.362Z,21.24
2018-09-30T06:15:38.071Z,21.23
2018-09-30T06:16:15.722Z,21.23
2018-09-30T06:16:53.347Z,21.24
2018-09-30T06:17:31.238Z,21.22
2018-09-30T06:18:08.922Z,21.25
2018-09-30T06:18:46.610Z,21.25
2018-09-30T06:19:24.185Z,21.24
2018-09-30T06:20:02.140Z,21.25
2018-09-30T06:20:39.859Z,21.22
2018-09-30T06:22:00.789Z,21.23
2018-09-30T06:22:38.390Z,21.24
2018-09-30T06:23:15.979Z,21.23
2018-09-30T06:23:53.553Z,21.25
2018-09-30T06:24:31.224Z,21.25
2018-09-30T06:25:09.145Z,21.25
2018-09-30T06:25:47.173Z,21.23
2018-09-30T06:26:24.946Z,21.24
2018-09-30T06:27:02.580Z,21.25
2018-09-30T06:27:40.263Z,21.22
2018-09-30T06:28:18.335Z,21.24
2018-09-30T06:28:55.964Z,21.24
2018-09-30T06:29:33.682Z,21.23
2018-09-30T06:30:11.354Z,21.23
2018-09-30T06:30:49.014Z,21.23
2018-09-30T06:31:26.590Z,21.22
2018-09-30T06:32:04.189Z,21.23
2018-09-30T06:32:41.570Z,21.23
2018-09-30T06:33:19.316Z,21.25
2018-09-30T06:33:56.778Z,21.23
2018-09-30T06:34:34.708Z,21.23
2018-09-30T06:35:12.463Z,21.25
2018-09-30T06:35:50.065Z,21.25
2018-09-30T06:36:27.581Z,21.24
2018-09-30T06:37:48.253Z,21.26
2018-09-30T06:38:26.094Z,21.26
2018-09-30T06:39:03.738Z,21.26
2018-09-30T06:39:41.426Z,21.27
2018-09-30T06:40:18.881Z,21.25
2018-09-30T06:40:56.527Z,21.26
2018-09-30T06:41:34.171Z,21.26
2018-09-30T06:42:54.774Z,21.25
2018-09-30T06:43:32.473Z,21.25
2018-09-30T06:44:10.082Z,21.27
2018-09-30T06:44:48.044Z,21.25
2018-09-30T06:45:25.739Z,21.27
2018-09-30T06:46:03.224Z,21.26
2018-09-30T06:46:41.096Z,21.26
2018-09-30T06:47:18.980Z,21.27
2018-09-30T06:47:56.523Z,21.28
2018-09-30T06:48:34.065Z,21.27
2018-09-30T06:49:11.810Z,21.27
2018-09-30T06:49:49.284Z,21.27
2018-09-30T06:50:26.894Z,21.27
2018-09-30T06:51:04.499Z,21.27
2018-09-30T06:51:42.233Z,21.27
2018-09-30T06:52:19.890Z,21.25
2018-09-30T06:52:57.624Z,21.27
2018-09-30T06:53:35.362Z,21.27
2018-09-30T06:54:13.066Z,21.27
2018-09-30T06:54:50.552Z,21.28
2018-09-30T06:55:28.245Z,21.26
2018-09-30T06:56:05.685Z,21.27
2018-09-30T06:56:43.090Z,21.28
2018-09-30T06:57:20.765Z,21.27
2018-09-30T06:57:58.337Z,21.27
2018-09-30T06:58:35.925Z,21.26
2018-09-30T06:59:13.446Z,21.26
2018-09-30T06:59:51.237Z,21.28
2018-09-30T07:00:28.871Z,21.27
2018-09-30T07:01:06.696Z,21.26
2018-09-30T07:01:44.446Z,21.26
2018-09-30T07:02:22.368Z,21.26
2018-09-30T07:03:00.281Z,21.26
2018-09-30T07:03:38.060Z,21.27
2018-09-30T07:04:15.591Z,21.27
2018-09-30T07:04:53.271Z,21.27
2018-09-30T07:05:30.887Z,21.27
2018-09-30T07:06:08.391Z,21.26
2018-09-30T07:06:45.906Z,21.27
2018-09-30T07:07:23.418Z,21.26
2018-09-30T07:08:01.122Z,21.26
2018-09-30T07:08:38.839Z,21.26
2018-09-30T07:09:16.411Z,21.26
2018-09-30T07:09:53.866Z,21.26
2018-09-30T07:10:31.370Z,21.27
2018-09-30T07:11:08.836Z,21.27
2018-09-30T07:11:46.357Z,21.27
2018-09-30T07:12:23.917Z,21.26
2018-09-30T07:13:01.566Z,21.27
2018-09-30T07:13:39.065Z,21.26
2018-09-30T07:14:16.754Z,21.26
2018-09-30T07:14:54.299Z,21.27
2018-09-30T07:15:32.003Z,21.27
2018-09-30T07:16:09.697Z,21.28
2018-09-30T07:16:47.213Z,21.27
2018-09-30T07:17:24.810Z,21.27
2018-09-30T07:18:02.365Z,21.27
2018-09-30T07:18:40.164Z,21.26
2018-09-30T07:19:17.573Z,21.26
2018-09-30T07:19:55.327Z,21.26
2018-09-30T07:20:32.798Z,21.27
2018-09-30T07:21:10.455Z,21.25
2018-09-30T07:21:48.311Z,21.27
2018-09-30T07:22:26.136Z,21.27
2018-09-30T07:23:03.716Z,21.27
2018-09-30T07:23:41.959Z,21.27
2018-09-30T07:24:19.844Z,21.27
2018-09-30T07:24:57.491Z,21.27
2018-09-30T07:25:35.132Z,21.27
2018-09-30T07:26:12.912Z,21.27
2018-09-30T07:26:50.502Z,21.26
2018-09-30T07:27:28.027Z,21.27
2018-09-30T07:28:05.570Z,21.27
2018-09-30T07:28:43.110Z,21.27
2018-09-30T07:29:20.641Z,21.27
2018-09-30T07:29:58.294Z,21.27
2018-09-30T07:30:36.188Z,21.27
2018-09-30T07:31:13.806Z,21.27
2018-09-30T07:31:51.504Z,21.28
2018-09-30T07:32:28.944Z,21.27
2018-09-30T07:33:06.765Z,21.28
2018-09-30T07:33:44.329Z,21.27
2018-09-30T07:34:21.738Z,21.27
2018-09-30T07:34:59.096Z,21.27
2018-09-30T07:35:36.682Z,21.27
2018-09-30T07:36:14.519Z,21.27
2018-09-30T07:36:52.083Z,21.29
2018-09-30T07:37:29.774Z,21.28
2018-09-30T07:38:07.569Z,21.28
2018-09-30T07:38:45.197Z,21.29
2018-09-30T07:39:22.865Z,21.29
2018-09-30T07:40:00.401Z,21.27
2018-09-30T07:40:37.894Z,21.28
2018-09-30T07:41:15.684Z,21.28
2018-09-30T07:41:53.574Z,21.28
2018-09-30T07:42:31.207Z,21.28
2018-09-30T07:43:08.845Z,21.29
2018-09-30T07:43:46.395Z,21.28
2018-09-30T07:44:24.008Z,21.28
2018-09-30T07:45:01.683Z,21.28
2018-09-30T07:45:39.241Z,21.29
2018-09-30T07:46:16.933Z,21.28
2018-09-30T07:46:54.401Z,21.29
2018-09-30T07:47:33.144Z,21.29
2018-09-30T07:48:10.610Z,21.29
2018-09-30T07:48:48.162Z,21.29
2018-09-30T07:49:25.769Z,21.29
2018-09-30T07:50:03.301Z,21.29
2018-09-30T07:50:40.979Z,21.31
2018-09-30T07:51:18.706Z,21.28
2018-09-30T07:51:56.343Z,21.30
2018-09-30T07:52:33.885Z,21.30
2018-09-30T07:53:10.790Z,21.29
2018-09-30T07:53:48.277Z,21.30
2018-09-30T07:54:25.938Z,21.30
2018-09-30T07:55:03.639Z,21.29
2018-09-30T07:55:41.406Z,21.29
2018-09-30T07:56:19.103Z,21.29
2018-09-30T07:56:56.571Z,21.29
2018-09-30T07:57:34.261Z,21.28
2018-09-30T07:58:11.899Z,21.29
2018-09-30T07:58:49.539Z,21.29
2018-09-30T07:59:27.077Z,21.30
2018-09-30T08:00:04.953Z,21.29
2018-09-30T08:00:42.479Z,21.29
2018-09-30T08:01:20.095Z,21.30
2018-09-30T08:01:57.610Z,21.29
2018-09-30T08:02:35.371Z,21.29
2018-09-30T08:03:13.325Z,21.29
2018-09-30T08:03:50.829Z,21.30
2018-09-30T08:04:28.404Z,21.30
2018-09-30T08:05:05.974Z,21.30
2018-09-30T08:05:43.565Z,21.30
2018-09-30T08:06:21.085Z,21.30
2018-09-30T08:06:58.729Z,21.30
2018-09-30T08:07:36.351Z,21.30
2018-09-30T08:08:17.040Z,21.30
2018-09-30T08:08:54.807Z,21.31
2018-09-30T08:09:32.563Z,21.31
2018-09-30T08:10:10.071Z,21.30
2018-09-30T08:10:47.676Z,21.31
2018-09-30T08:11:25.823Z,21.31
2018-09-30T08:12:03.365Z,21.31
2018-09-30T08:12:40.923Z,21.32